createdAt,value
2023-01-31T00:18:28.992Z,30.33
2023-01-31T00:20:56.430Z,16.63
2023-01-31T00:23:26.995Z,15.40
2023-01-31T00:25:54.346Z,19.23
2023-01-31T00:28:21.635Z,26.13
2023-01-31T00:30:50.653Z,18.40
2023-01-31T00:33:17.941Z,18.95
2023-01-31T00:35:45.253Z,19.27
2023-01-31T00:38:13.111Z,20.27
2023-01-31T00:40:40.485Z,24.08
2023-01-31T00:43:07.727Z,16.98
2023-01-31T00:45:35.262Z,32.13
2023-01-31T00:48:03.052Z,21.83
2023-01-31T00:50:30.451Z,22.73
2023-01-31T00:52:57.696Z,17.50
2023-01-31T00:55:26.025Z,18.63
2023-01-31T00:57:53.379Z,17.38
2023-01-31T01:00:20.717Z,25.40
2023-01-31T01:02:48.309Z,23.85
2023-01-31T01:05:15.555Z,20.63
2023-01-31T01:07:42.831Z,22.10
2023-01-31T01:10:10.104Z,26.52
2023-01-31T01:12:37.386Z,17.13
2023-01-31T01:15:04.772Z,25.77
2023-01-31T01:17:33.672Z,29.33
2023-01-31T01:20:03.865Z,21.98
2023-01-31T01:22:31.229Z,17.58
2023-01-31T01:24:58.441Z,17.65
2023-01-31T01:27:27.458Z,18.00
2023-01-31T01:29:54.781Z,25.25
2023-01-31T01:32:24.199Z,15.88
2023-01-31T01:34:52.880Z,21.95
2023-01-31T01:37:20.284Z,24.08
2023-01-31T01:39:47.603Z,20.00
2023-01-31T01:42:15.062Z,11.73
2023-01-31T01:44:42.421Z,33.35
2023-01-31T01:47:09.922Z,15.20
2023-01-31T01:49:37.286Z,11.80
2023-01-31T01:52:04.766Z,19.20
2023-01-31T01:54:32.020Z,19.25
2023-01-31T01:56:59.341Z,20.50
2023-01-31T01:59:26.737Z,19.58
2023-01-31T02:01:56.068Z,19.95
2023-01-31T02:04:23.353Z,16.42
2023-01-31T02:06:50.740Z,13.05
2023-01-31T02:09:18.047Z,28.40
2023-01-31T02:11:45.335Z,18.90
2023-01-31T02:14:12.948Z,15.98
2023-01-31T02:16:40.306Z,17.77
2023-01-31T02:19:07.603Z,21.10
2023-01-31T02:21:34.953Z,21.45
2023-01-31T02:24:02.173Z,15.07
2023-01-31T02:26:30.852Z,19.90
2023-01-31T02:28:58.165Z,30.63
2023-01-31T02:31:25.552Z,15.65
2023-01-31T02:33:52.979Z,19.13
2023-01-31T02:36:20.869Z,25.90
2023-01-31T02:38:48.413Z,28.75
2023-01-31T02:41:15.857Z,26.40
2023-01-31T02:46:28.484Z,18.75
2023-01-31T02:48:55.852Z,20.92
2023-01-31T02:51:23.133Z,26.05
2023-01-31T02:53:52.364Z,23.67
2023-01-31T02:56:20.390Z,25.25
2023-01-31T02:58:48.536Z,15.77
2023-01-31T03:01:16.038Z,19.55
2023-01-31T03:03:46.229Z,30.10
2023-01-31T03:06:14.378Z,25.85
2023-01-31T03:08:41.649Z,18.13
2023-01-31T03:11:10.624Z,21.55
2023-01-31T03:13:37.843Z,22.40
2023-01-31T03:16:24.185Z,19.67
2023-01-31T03:18:51.428Z,21.67
2023-01-31T03:21:18.598Z,14.88
2023-01-31T03:23:45.981Z,18.92
2023-01-31T03:26:13.343Z,24.13
2023-01-31T03:28:42.248Z,33.28
2023-01-31T03:31:09.595Z,30.58
2023-01-31T03:33:37.077Z,29.05
2023-01-31T03:36:04.420Z,31.95
2023-01-31T03:38:32.659Z,30.50
2023-01-31T03:41:00.078Z,24.67
2023-01-31T03:43:27.404Z,20.73
2023-01-31T03:45:57.320Z,27.13
2023-01-31T03:48:24.701Z,28.65
2023-01-31T03:50:51.998Z,24.33
2023-01-31T03:53:20.204Z,27.30
2023-01-31T03:55:47.465Z,21.17
2023-01-31T03:58:15.617Z,22.17
2023-01-31T04:00:43.465Z,29.75
2023-01-31T04:03:12.592Z,18.42
2023-01-31T04:05:41.044Z,18.92
2023-01-31T04:08:08.413Z,16.65
2023-01-31T04:10:35.777Z,27.25
2023-01-31T04:13:03.121Z,20.52
2023-01-31T04:15:30.345Z,18.33
2023-01-31T04:17:57.598Z,14.73
2023-01-31T04:20:24.830Z,20.60
2023-01-31T04:22:52.035Z,20.40
2023-01-31T04:25:19.517Z,32.20
2023-01-31T04:27:46.842Z,18.33
2023-01-31T04:30:14.105Z,26.63
2023-01-31T04:32:41.313Z,20.75
2023-01-31T04:35:09.037Z,25.83
2023-01-31T04:37:36.663Z,29.98
2023-01-31T04:40:03.973Z,32.83
2023-01-31T04:42:31.782Z,18.02
2023-01-31T04:44:59.891Z,23.88
2023-01-31T04:47:27.087Z,30.38
2023-01-31T04:49:54.373Z,21.63
2023-01-31T04:52:21.679Z,19.75
2023-01-31T04:54:48.948Z,23.70
2023-01-31T04:57:16.135Z,17.33
2023-01-31T04:59:43.408Z,21.60
2023-01-31T05:02:10.667Z,24.92
2023-01-31T05:04:37.990Z,30.08
2023-01-31T05:07:05.565Z,26.20
2023-01-31T05:09:32.828Z,20.13
2023-01-31T05:12:00.131Z,25.23
2023-01-31T05:14:28.123Z,21.52
2023-01-31T05:16:55.371Z,19.85
2023-01-31T05:19:22.728Z,22.52
2023-01-31T05:21:59.074Z,22.92
2023-01-31T05:24:26.441Z,13.52
2023-01-31T05:26:58.357Z,32.22
2023-01-31T05:29:25.983Z,22.23
2023-01-31T05:31:53.431Z,16.92
2023-01-31T05:34:20.719Z,23.88
2023-01-31T05:36:47.955Z,21.45
2023-01-31T05:39:15.198Z,28.63
2023-01-31T05:41:42.439Z,24.40
2023-01-31T05:44:10.821Z,18.25
2023-01-31T05:46:38.244Z,23.08
2023-01-31T05:49:05.554Z,14.80
2023-01-31T05:51:33.288Z,16.10
2023-01-31T05:54:00.742Z,17.33
2023-01-31T05:56:27.979Z,18.60
2023-01-31T05:58:55.274Z,13.60
2023-01-31T06:01:23.057Z,19.63
2023-01-31T06:03:50.491Z,21.40
2023-01-31T06:06:17.899Z,24.98
2023-01-31T06:08:45.467Z,19.92
2023-01-31T06:11:12.682Z,16.42
2023-01-31T06:13:40.027Z,21.52
2023-01-31T06:16:07.314Z,14.73
2023-01-31T06:18:34.693Z,13.35
2023-01-31T06:21:01.894Z,18.27
2023-01-31T06:23:29.182Z,12.70
2023-01-31T06:25:57.084Z,14.80
2023-01-31T06:28:24.416Z,14.38
2023-01-31T06:30:51.703Z,21.60
2023-01-31T06:33:19.044Z,25.02
2023-01-31T06:35:47.313Z,13.85
2023-01-31T06:38:16.312Z,18.42
2023-01-31T06:40:43.671Z,19.08
2023-01-31T06:43:10.988Z,21.27
2023-01-31T06:45:38.223Z,28.98
2023-01-31T06:48:05.500Z,23.38
2023-01-31T06:50:33.992Z,19.45
2023-01-31T06:53:01.294Z,12.70
2023-01-31T06:55:28.487Z,22.35
2023-01-31T06:57:56.860Z,19.88
2023-01-31T07:00:27.585Z,16.40
2023-01-31T07:02:56.826Z,26.08
2023-01-31T07:05:24.362Z,12.35
2023-01-31T07:07:51.697Z,19.08
2023-01-31T07:10:18.968Z,25.58
2023-01-31T07:12:46.311Z,23.05
2023-01-31T07:15:18.119Z,10.45
2023-01-31T07:17:46.031Z,18.10
2023-01-31T07:20:13.365Z,13.32
2023-01-31T07:22:40.679Z,15.70
2023-01-31T07:25:07.920Z,12.65
2023-01-31T07:27:35.378Z,19.73
2023-01-31T07:30:02.635Z,16.65
2023-01-31T07:32:31.051Z,28.92
2023-01-31T07:34:58.521Z,19.00
2023-01-31T07:37:26.012Z,19.30
2023-01-31T07:39:53.238Z,12.63
2023-01-31T07:42:20.618Z,21.25
2023-01-31T07:44:49.865Z,22.60
2023-01-31T07:47:17.387Z,16.48
2023-01-31T07:49:44.628Z,14.90
2023-01-31T07:52:11.897Z,17.58
2023-01-31T07:54:39.188Z,21.38
2023-01-31T07:57:06.505Z,17.05
2023-01-31T07:59:33.722Z,15.68
2023-01-31T08:02:19.842Z,12.05
2023-01-31T08:04:47.832Z,20.38
2023-01-31T08:07:15.144Z,25.30
2023-01-31T08:09:46.141Z,23.55
2023-01-31T08:12:13.672Z,21.50
2023-01-31T08:14:40.951Z,20.38
2023-01-31T08:17:08.821Z,18.48
2023-01-31T08:19:36.079Z,11.85
2023-01-31T08:22:05.473Z,16.50
2023-01-31T08:24:33.002Z,11.48
2023-01-31T08:27:00.224Z,21.00
2023-01-31T08:29:27.756Z,19.63
2023-01-31T08:31:55.122Z,13.25
2023-01-31T08:34:23.496Z,14.38
2023-01-31T08:36:50.788Z,16.75
2023-01-31T08:39:18.203Z,31.70
2023-01-31T08:41:45.441Z,28.38
2023-01-31T08:44:12.738Z,22.73
2023-01-31T08:46:40.864Z,22.00
2023-01-31T08:49:09.043Z,18.02
2023-01-31T08:51:36.466Z,18.40
2023-01-31T08:54:03.883Z,27.13
2023-01-31T08:56:31.389Z,26.83
2023-01-31T08:58:58.692Z,23.48
2023-01-31T09:01:26.067Z,21.95
2023-01-31T09:03:57.108Z,22.40
2023-01-31T09:06:25.264Z,26.80
2023-01-31T09:08:52.719Z,21.13
2023-01-31T09:11:20.722Z,16.65
2023-01-31T09:13:48.033Z,18.65
2023-01-31T09:16:15.420Z,28.02
2023-01-31T09:18:42.794Z,21.45
2023-01-31T09:21:10.086Z,18.80
2023-01-31T09:23:37.885Z,25.25
2023-01-31T09:26:06.107Z,16.27
2023-01-31T09:28:33.342Z,22.30
2023-01-31T09:31:00.826Z,18.15
2023-01-31T09:33:28.753Z,23.33
2023-01-31T09:35:56.145Z,14.60
2023-01-31T09:38:23.530Z,22.75
2023-01-31T09:40:50.791Z,22.52
2023-01-31T09:43:17.943Z,16.10
2023-01-31T09:45:45.293Z,18.77
2023-01-31T09:48:12.535Z,58.08
2023-01-31T09:50:39.848Z,25.88
2023-01-31T09:53:07.409Z,17.55
2023-01-31T09:55:34.946Z,25.48
2023-01-31T09:58:02.128Z,24.27
2023-01-31T10:00:29.575Z,24.27
2023-01-31T10:02:56.988Z,21.10
2023-01-31T10:05:24.330Z,29.23
2023-01-31T10:07:51.569Z,25.10
2023-01-31T10:10:18.846Z,28.50
2023-01-31T10:12:46.104Z,20.60
2023-01-31T10:15:13.637Z,22.65
2023-01-31T10:17:41.035Z,28.08
2023-01-31T10:20:08.329Z,19.02
2023-01-31T10:22:35.617Z,20.05
2023-01-31T10:25:03.539Z,31.05
2023-01-31T10:27:30.708Z,20.55
2023-01-31T10:29:58.015Z,22.48
2023-01-31T10:32:26.525Z,13.07
2023-01-31T10:34:53.776Z,15.48
2023-01-31T10:37:21.036Z,16.10
2023-01-31T10:39:48.283Z,16.92
2023-01-31T10:42:15.541Z,22.20
2023-01-31T10:44:42.808Z,14.50
2023-01-31T10:47:09.994Z,22.50
2023-01-31T10:49:37.211Z,14.25
2023-01-31T10:52:04.734Z,30.42
2023-01-31T10:54:32.161Z,19.05
2023-01-31T10:56:59.439Z,20.48
2023-01-31T10:59:26.734Z,14.05
2023-01-31T11:01:54.033Z,13.25
2023-01-31T11:04:21.465Z,21.52
2023-01-31T11:06:48.946Z,29.75
2023-01-31T11:09:16.171Z,15.13
2023-01-31T11:17:12.581Z,15.70
2023-01-31T11:19:41.050Z,22.33
2023-01-31T11:22:08.272Z,18.33
2023-01-31T11:24:35.472Z,13.70
2023-01-31T11:27:02.761Z,16.92
2023-01-31T11:29:29.982Z,22.00
2023-01-31T11:31:57.577Z,22.73
2023-01-31T11:34:24.849Z,12.55
2023-01-31T11:36:52.148Z,19.70
2023-01-31T11:39:19.417Z,17.95
2023-01-31T11:41:46.650Z,17.40
2023-01-31T11:44:13.983Z,15.63
2023-01-31T11:54:55.204Z,21.88
2023-01-31T11:57:22.387Z,11.98
2023-01-31T11:59:49.618Z,14.95
2023-01-31T12:02:16.896Z,13.35
2023-01-31T12:04:44.115Z,19.02
2023-01-31T12:07:11.385Z,10.63
2023-01-31T12:09:38.732Z,8.82
2023-01-31T12:12:07.984Z,13.27
2023-01-31T12:14:35.367Z,11.15
2023-01-31T12:17:02.690Z,13.70
2023-01-31T12:19:29.968Z,11.90
2023-01-31T12:21:57.278Z,7.78
2023-01-31T12:24:24.654Z,9.63
2023-01-31T12:26:51.923Z,11.15
2023-01-31T12:29:19.510Z,13.13
2023-01-31T12:31:46.787Z,12.40
2023-01-31T12:34:14.203Z,8.02
2023-01-31T12:36:41.579Z,15.20
2023-01-31T12:39:08.918Z,11.05
2023-01-31T12:41:36.166Z,8.25
2023-01-31T12:44:03.517Z,5.72
2023-01-31T12:46:30.896Z,12.25
2023-01-31T12:48:58.136Z,10.73
2023-01-31T12:51:25.308Z,6.85
2023-01-31T12:53:52.560Z,18.95
2023-01-31T12:56:19.831Z,8.63
2023-01-31T12:58:47.139Z,8.25
2023-01-31T13:01:14.437Z,12.52
2023-01-31T13:03:41.880Z,7.10
2023-01-31T13:06:09.565Z,7.20
2023-01-31T13:08:36.924Z,7.75
2023-01-31T13:11:04.097Z,11.10
2023-01-31T13:13:34.464Z,7.93
2023-01-31T13:16:02.028Z,11.55
2023-01-31T13:18:29.231Z,9.35
2023-01-31T13:20:56.799Z,9.90
2023-01-31T13:23:24.266Z,9.55
2023-01-31T13:25:51.611Z,5.63
2023-01-31T13:28:18.933Z,12.43
2023-01-31T13:30:46.336Z,6.00
2023-01-31T13:33:15.580Z,5.65
2023-01-31T13:35:43.576Z,7.50
2023-01-31T13:38:10.847Z,7.70
2023-01-31T13:40:38.077Z,3.65
2023-01-31T13:43:05.448Z,9.80
2023-01-31T13:45:32.821Z,7.05
2023-01-31T13:48:00.079Z,6.32
2023-01-31T13:50:27.475Z,3.63
2023-01-31T13:52:56.986Z,4.72
2023-01-31T13:55:24.195Z,9.15
2023-01-31T13:57:51.471Z,11.57
2023-01-31T14:00:18.816Z,3.22
2023-01-31T14:02:46.169Z,6.70
2023-01-31T14:05:13.464Z,4.20
2023-01-31T14:07:40.862Z,8.57
2023-01-31T14:10:08.113Z,3.10
2023-01-31T14:12:35.454Z,4.15
2023-01-31T14:15:02.893Z,8.50
2023-01-31T14:17:31.063Z,6.25
2023-01-31T14:19:58.313Z,11.52
2023-01-31T14:22:26.947Z,4.47
2023-01-31T14:24:55.931Z,5.70
2023-01-31T14:27:23.192Z,8.10
2023-01-31T14:29:50.438Z,5.85
2023-01-31T14:32:17.847Z,8.57
2023-01-31T14:34:45.125Z,8.40
2023-01-31T14:37:12.443Z,6.68
2023-01-31T14:39:41.299Z,8.93
2023-01-31T14:42:08.589Z,7.47
2023-01-31T14:44:36.013Z,6.88
2023-01-31T14:47:07.385Z,6.75
2023-01-31T14:49:35.188Z,8.45
2023-01-31T14:52:02.410Z,10.80
2023-01-31T14:54:29.676Z,7.97
2023-01-31T14:56:56.913Z,8.77
2023-01-31T14:59:24.205Z,5.72
2023-01-31T15:01:51.481Z,9.32
2023-01-31T15:04:18.818Z,9.02
2023-01-31T15:06:46.535Z,9.90
2023-01-31T15:09:13.983Z,8.75
2023-01-31T15:11:43.108Z,10.65
2023-01-31T15:14:13.256Z,15.40
2023-01-31T15:16:44.465Z,8.70
2023-01-31T15:19:11.753Z,14.68
2023-01-31T15:21:40.281Z,25.95
2023-01-31T15:24:07.517Z,21.67
2023-01-31T15:26:35.685Z,15.98
2023-01-31T15:29:03.000Z,14.68
2023-01-31T15:31:30.250Z,28.77
2023-01-31T15:33:57.625Z,16.83
2023-01-31T15:36:26.543Z,21.35
2023-01-31T15:38:54.688Z,23.85
2023-01-31T15:41:22.973Z,14.85
2023-01-31T15:43:51.661Z,20.58
2023-01-31T15:46:22.118Z,19.10
2023-01-31T15:48:49.449Z,16.08
2023-01-31T15:51:16.685Z,22.00
2023-01-31T15:53:44.028Z,30.33
2023-01-31T15:56:11.299Z,17.67
2023-01-31T15:58:39.143Z,18.13
2023-01-31T16:01:06.732Z,23.95
2023-01-31T16:03:34.021Z,28.33
2023-01-31T16:06:01.312Z,30.10
2023-01-31T16:08:29.256Z,20.23
2023-01-31T16:10:56.609Z,29.08
2023-01-31T16:13:23.854Z,24.30
2023-01-31T16:15:51.119Z,19.75
2023-01-31T16:18:18.636Z,21.58
2023-01-31T16:20:46.154Z,27.13
2023-01-31T16:23:13.349Z,27.90
2023-01-31T16:25:40.646Z,30.95
2023-01-31T16:28:07.873Z,34.65
2023-01-31T16:30:35.348Z,20.38
2023-01-31T16:33:02.656Z,20.90
2023-01-31T16:35:30.050Z,39.92
2023-01-31T16:37:57.268Z,27.45
2023-01-31T16:40:24.660Z,28.58
2023-01-31T16:42:51.900Z,38.08
2023-01-31T16:45:19.491Z,27.20
2023-01-31T16:47:47.596Z,39.08
2023-01-31T16:50:14.841Z,21.90
2023-01-31T16:52:42.079Z,41.00
2023-01-31T16:55:09.305Z,30.88
2023-01-31T16:57:38.429Z,25.20
2023-01-31T17:00:06.271Z,32.55
2023-01-31T17:02:34.023Z,30.65
2023-01-31T17:05:01.379Z,27.48
2023-01-31T17:07:28.642Z,17.23
2023-01-31T17:09:56.530Z,24.55
2023-01-31T17:12:23.974Z,23.00
2023-01-31T17:14:57.177Z,28.67
2023-01-31T17:17:24.916Z,41.88
2023-01-31T17:19:54.519Z,27.27
2023-01-31T17:22:24.929Z,28.08
2023-01-31T17:24:52.745Z,18.33
2023-01-31T17:27:19.927Z,30.88
2023-01-31T17:29:48.055Z,30.27
2023-01-31T17:32:15.309Z,20.38
2023-01-31T17:34:42.688Z,24.00
2023-01-31T17:37:09.975Z,21.75
2023-01-31T17:39:37.281Z,29.42
2023-01-31T17:42:04.746Z,29.25
2023-01-31T17:44:32.005Z,28.50
2023-01-31T17:46:59.376Z,20.90
2023-01-31T17:49:26.658Z,25.55
2023-01-31T17:51:54.003Z,31.10
2023-01-31T17:54:21.264Z,27.85
2023-01-31T17:56:48.644Z,31.00
2023-01-31T17:59:26.487Z,24.45
2023-01-31T18:01:54.825Z,28.30
2023-01-31T18:04:22.109Z,38.45
2023-01-31T18:06:49.415Z,34.78
2023-01-31T18:09:18.632Z,22.77
2023-01-31T18:11:46.889Z,36.08
2023-01-31T18:14:14.930Z,25.65
2023-01-31T18:16:42.374Z,29.25
2023-01-31T18:19:11.507Z,59.47
2023-01-31T18:21:41.455Z,29.15
2023-01-31T18:24:14.351Z,37.22
2023-01-31T18:26:43.328Z,20.70
2023-01-31T18:29:19.550Z,27.15
2023-01-31T18:31:47.005Z,27.92
2023-01-31T18:34:14.372Z,29.85
2023-01-31T18:36:41.651Z,34.75
2023-01-31T18:39:09.044Z,19.42
2023-01-31T18:41:36.375Z,32.60
2023-01-31T18:44:04.684Z,21.63
2023-01-31T18:46:31.961Z,19.80
2023-01-31T18:48:59.288Z,40.97
2023-01-31T18:51:26.752Z,21.50
2023-01-31T18:53:54.028Z,30.38
2023-01-31T18:56:21.244Z,23.38
2023-01-31T18:58:52.375Z,26.20
2023-01-31T19:01:19.707Z,21.75
2023-01-31T19:03:46.999Z,30.63
2023-01-31T19:06:14.742Z,30.02
2023-01-31T19:08:42.001Z,39.10
2023-01-31T19:11:09.261Z,26.55
2023-01-31T19:13:36.553Z,29.73
2023-01-31T19:16:03.889Z,32.63
2023-01-31T19:18:31.284Z,24.05
2023-01-31T19:20:58.872Z,23.58
2023-01-31T19:23:26.284Z,29.48
2023-01-31T19:25:53.621Z,26.80
2023-01-31T19:28:23.274Z,30.88
2023-01-31T19:30:51.107Z,19.60
2023-01-31T19:33:18.450Z,19.83
2023-01-31T19:35:45.657Z,20.77
2023-01-31T19:38:14.034Z,38.33
2023-01-31T19:40:43.716Z,27.25
2023-01-31T19:43:11.231Z,24.85
2023-01-31T19:45:38.596Z,31.75
2023-01-31T19:48:05.893Z,25.33
2023-01-31T19:50:33.175Z,26.98
2023-01-31T19:53:00.462Z,31.30
2023-01-31T19:55:27.653Z,29.23
2023-01-31T19:57:54.988Z,21.30
2023-01-31T20:00:22.217Z,22.33
2023-01-31T20:02:49.505Z,29.77
2023-01-31T20:05:17.083Z,28.63
2023-01-31T20:07:44.441Z,32.70
2023-01-31T20:10:11.780Z,28.80
2023-01-31T20:12:39.113Z,25.00
2023-01-31T20:15:06.677Z,16.90
2023-01-31T20:17:34.732Z,36.10
2023-01-31T20:20:02.629Z,30.35
2023-01-31T20:22:30.119Z,19.77
2023-01-31T20:24:57.533Z,30.38
2023-01-31T20:27:24.800Z,24.63
2023-01-31T20:29:52.058Z,30.27
2023-01-31T20:32:19.441Z,30.88
2023-01-31T20:34:46.863Z,35.33
2023-01-31T20:37:14.142Z,30.52
2023-01-31T20:39:41.385Z,32.13
2023-01-31T20:42:10.600Z,25.58
2023-01-31T20:44:38.026Z,20.02
2023-01-31T20:47:05.311Z,38.42
2023-01-31T20:49:32.657Z,41.15
2023-01-31T20:51:59.915Z,22.15
2023-01-31T20:54:27.245Z,26.80
2023-01-31T20:56:54.786Z,34.05
2023-01-31T20:59:22.048Z,29.77
2023-01-31T21:01:49.418Z,29.33
2023-01-31T21:04:16.718Z,43.70
2023-01-31T21:06:43.969Z,29.30
2023-01-31T21:09:14.748Z,28.88
2023-01-31T21:11:42.093Z,25.42
2023-01-31T21:14:09.286Z,30.52
2023-01-31T21:16:36.536Z,36.13
2023-01-31T21:19:03.754Z,26.35
2023-01-31T21:21:33.311Z,27.55
2023-01-31T21:24:00.626Z,28.23
2023-01-31T21:26:28.026Z,38.78
2023-01-31T21:28:55.425Z,26.70
2023-01-31T21:31:22.889Z,30.30
2023-01-31T21:33:50.456Z,36.50
2023-01-31T21:36:17.814Z,36.53
2023-01-31T21:38:45.055Z,33.03
2023-01-31T21:41:31.228Z,32.08
2023-01-31T21:43:58.622Z,26.30
2023-01-31T21:46:25.889Z,27.33
2023-01-31T21:48:53.170Z,32.30
2023-01-31T21:51:20.613Z,35.50
2023-01-31T21:53:47.872Z,33.78
2023-01-31T21:56:15.091Z,28.23
2023-01-31T21:58:42.360Z,33.10
2023-01-31T22:01:09.611Z,30.65
2023-01-31T22:03:37.147Z,28.65
2023-01-31T22:06:04.787Z,31.88
2023-01-31T22:08:32.051Z,33.63
2023-01-31T22:10:59.335Z,32.80
2023-01-31T22:13:26.643Z,34.60
2023-01-31T22:15:53.864Z,26.77
2023-01-31T22:18:21.142Z,45.60
2023-01-31T22:20:48.335Z,37.90
2023-01-31T22:23:15.620Z,34.47
2023-01-31T22:25:42.913Z,25.05
2023-01-31T22:28:10.197Z,29.92
2023-01-31T22:30:37.477Z,22.35
2023-01-31T22:33:04.816Z,34.95
2023-01-31T22:35:32.032Z,34.42
2023-01-31T22:37:59.336Z,35.53
2023-01-31T22:40:26.716Z,34.58
2023-01-31T22:42:53.975Z,31.10
2023-01-31T22:45:21.296Z,34.08
2023-01-31T22:47:48.578Z,34.85
2023-01-31T22:50:15.932Z,26.88
2023-01-31T22:52:43.227Z,22.85
2023-01-31T22:55:10.520Z,20.98
2023-01-31T22:57:37.763Z,37.78
2023-01-31T23:00:05.626Z,28.42
2023-01-31T23:02:33.023Z,44.83
2023-01-31T23:05:00.254Z,33.13
2023-01-31T23:07:29.260Z,32.95
2023-01-31T23:09:56.451Z,31.20
2023-01-31T23:12:23.739Z,17.33
2023-01-31T23:14:50.938Z,39.13
2023-01-31T23:17:37.007Z,29.55
2023-01-31T23:20:06.422Z,26.80
2023-01-31T23:22:36.100Z,31.67
2023-01-31T23:25:03.419Z,37.63
2023-01-31T23:27:30.677Z,40.60
2023-01-31T23:29:57.904Z,20.60
2023-01-31T23:32:25.159Z,30.40
2023-01-31T23:34:52.914Z,31.45
2023-01-31T23:37:23.483Z,29.08
2023-01-31T23:39:50.887Z,29.25
2023-01-31T23:42:18.081Z,26.42
2023-01-31T23:44:45.359Z,51.30
2023-01-31T23:47:12.536Z,33.60
2023-01-31T23:49:39.757Z,32.72
2023-01-31T23:52:06.975Z,33.22
2023-01-31T23:54:34.299Z,36.42
2023-01-31T23:57:01.565Z,31.05
2023-01-31T23:59:29.486Z,39.58
